Time;durP1;ratioP1;P1;durP2;ratioP2;P2;SDS_P1;SDS_P2;PMS_P1;PMS_P2;Temp;Humidity;BMP_temperature;BMP_pressure;BME280_temperature;BME280_humidity;BME280_pressure;Samples;Min_cycle;Max_cycle;Signal;HPM_P1;HPM_P2
2023/05/20 00:00:07;;;;;;;0.88;0.88;;;;;;;10.07;62.38;102104.81;5084475;28;20078;-70
2023/05/20 00:02:32;;;;;;;0.30;0.30;;;;;;;10.08;62.27;102100.50;5084295;28;20032;-69
2023/05/20 00:04:58;;;;;;;0.30;0.30;;;;;;;9.91;62.10;102081.13;5084650;28;20028;-69
2023/05/20 00:07:23;;;;;;;0.40;0.40;;;;;;;10.01;61.99;102086.50;5084390;28;20027;-69
2023/05/20 00:09:49;;;;;;;0.30;0.30;;;;;;;10.06;62.15;102095.28;5084212;28;20043;-69
2023/05/20 00:12:14;;;;;;;0.30;0.30;;;;;;;10.04;61.99;102097.84;5084258;28;20028;-69
2023/05/20 00:14:40;;;;;;;0.30;0.30;;;;;;;10.03;61.84;102093.47;5084419;28;20029;-69
2023/05/20 00:17:05;;;;;;;0.30;0.30;;;;;;;10.02;62.03;102094.34;5087283;28;20056;-68
2023/05/20 00:19:30;;;;;;;0.30;0.30;;;;;;;10.05;61.89;102093.50;5088069;28;20052;-69
2023/05/20 00:21:56;;;;;;;0.30;0.30;;;;;;;10.02;61.81;102094.34;5088157;28;20020;-68
2023/05/20 00:24:23;;;;;;;0.30;0.30;;;;;;;9.98;61.80;102086.44;5087918;28;20032;-68
2023/05/20 00:26:48;;;;;;;0.30;0.30;;;;;;;9.97;62.04;102100.28;5088078;28;20020;-68
2023/05/20 00:29:14;;;;;;;0.40;0.40;;;;;;;9.91;62.06;102094.09;5087978;28;20032;-69
2023/05/20 00:31:39;;;;;;;0.50;0.50;;;;;;;9.90;62.18;102100.13;5088057;28;20039;-69
2023/05/20 00:34:05;;;;;;;0.30;0.30;;;;;;;9.86;62.54;102100.91;5088097;28;20499;-69
2023/05/20 00:36:30;;;;;;;1.60;1.50;;;;;;;9.84;62.87;102094.81;5088180;28;20033;-68
2023/05/20 00:38:55;;;;;;;0.93;0.93;;;;;;;9.77;63.29;102090.34;5087781;28;20040;-66
2023/05/20 00:41:21;;;;;;;0.40;0.40;;;;;;;9.76;63.58;102096.38;5087860;28;20036;-69
2023/05/20 00:43:46;;;;;;;1.17;0.95;;;;;;;9.72;63.68;102095.41;5087839;28;20030;-68
2023/05/20 00:46:12;;;;;;;0.40;0.40;;;;;;;9.69;63.81;102100.53;5087888;28;20032;-69
2023/05/20 00:48:42;;;;;;;0.40;0.40;;;;;;;9.66;63.86;102100.47;5087587;28;20056;-69
2023/05/20 00:51:10;;;;;;;1.65;1.55;;;;;;;9.61;63.93;102094.28;5087870;28;20013;-69
2023/05/20 00:53:36;;;;;;;0.68;0.68;;;;;;;9.58;63.70;102096.81;5087545;28;20020;-69
2023/05/20 00:56:03;;;;;;;0.40;0.40;;;;;;;9.55;63.66;102097.63;5087702;28;20047;-68
2023/05/20 00:58:29;;;;;;;0.55;0.55;;;;;;;9.56;63.56;102099.38;5087612;28;20021;-68
2023/05/20 01:00:55;;;;;;;0.45;0.45;;;;;;;9.56;63.56;102094.19;5087557;28;20376;-68
2023/05/20 01:03:21;;;;;;;0.40;0.40;;;;;;;9.59;63.60;102099.44;5087422;28;20025;-70
2023/05/20 01:05:46;;;;;;;0.30;0.30;;;;;;;9.65;63.47;102099.59;5087629;28;20099;-68
2023/05/20 01:08:11;;;;;;;4.50;2.50;;;;;;;9.69;63.74;102099.66;5087289;28;20024;-68
2023/05/20 01:10:43;;;;;;;0.63;0.63;;;;;;;9.74;64.02;102095.44;5087285;28;20048;-68
2023/05/20 01:13:14;;;;;;;0.40;0.40;;;;;;;9.75;64.17;102095.50;5086035;28;20024;-70
2023/05/20 01:15:40;;;;;;;0.35;0.35;;;;;;;9.74;64.41;102098.03;5087262;28;20099;-68
2023/05/20 01:18:09;;;;;;;0.30;0.30;;;;;;;9.71;64.37;102093.69;5087021;28;20092;-69
2023/05/20 01:20:36;;;;;;;1.50;1.40;;;;;;;9.71;64.43;102088.50;5087293;28;20051;-68
2023/05/20 01:23:02;;;;;;;5.05;1.55;;;;;;;9.69;64.40;102089.28;5087284;28;20024;-69
2023/05/20 01:25:27;;;;;;;1.08;1.08;;;;;;;9.69;64.28;102084.09;5086962;28;20020;-69
2023/05/20 01:27:56;;;;;;;0.40;0.40;;;;;;;9.62;64.44;102078.78;5086504;28;20024;-69
2023/05/20 01:30:26;;;;;;;0.30;0.30;;;;;;;9.73;64.40;102085.94;5087228;28;20016;-68
2023/05/20 01:32:56;;;;;;;0.40;0.40;;;;;;;9.68;64.38;102083.22;5086898;28;20020;-68
2023/05/20 01:35:22;;;;;;;0.40;0.40;;;;;;;9.71;64.35;102082.41;5086983;28;20024;-69
2023/05/20 01:37:51;;;;;;;0.40;0.40;;;;;;;9.62;64.33;102075.28;5086745;28;20056;-68
2023/05/20 01:40:17;;;;;;;0.40;0.40;;;;;;;9.66;64.37;102087.50;5086539;28;20025;-69
2023/05/20 01:42:44;;;;;;;1.00;1.00;;;;;;;9.67;64.32;102094.44;5086743;28;20039;-68
2023/05/20 01:45:10;;;;;;;0.30;0.30;;;;;;;9.61;64.41;102091.69;5086970;28;20357;-68
2023/05/20 01:47:36;;;;;;;0.40;0.40;;;;;;;9.59;64.29;102095.97;5086445;28;20483;-68
2023/05/20 01:50:01;;;;;;;0.40;0.40;;;;;;;9.54;64.39;102101.06;5087131;28;20024;-68
2023/05/20 01:52:27;;;;;;;1.67;1.58;;;;;;;9.52;64.30;102094.97;5086566;28;20452;-68
2023/05/20 01:54:53;;;;;;;0.40;0.40;;;;;;;9.53;64.45;102105.38;5086215;28;20025;-68
2023/05/20 01:57:20;;;;;;;0.40;0.40;;;;;;;9.47;64.57;102099.16;5086629;28;20104;-68
2023/05/20 01:59:46;;;;;;;2.47;2.38;;;;;;;9.43;64.59;102111.16;5086392;28;20051;-69
2023/05/20 02:02:12;;;;;;;0.40;0.40;;;;;;;9.40;64.06;102112.00;5086408;28;20025;-69
2023/05/20 02:04:37;;;;;;;0.40;0.40;;;;;;;9.18;64.31;102071.72;5086096;28;20047;-69
2023/05/20 02:07:03;;;;;;;0.40;0.40;;;;;;;9.33;64.31;102104.03;5085927;28;20025;-69
2023/05/20 02:09:28;;;;;;;0.40;0.40;;;;;;;9.26;64.17;102106.47;5084704;28;20024;-68
2023/05/20 02:11:54;;;;;;;0.40;0.40;;;;;;;9.26;64.20;102109.06;5086372;28;20051;-69
2023/05/20 02:14:19;;;;;;;0.40;0.40;;;;;;;9.21;64.27;102107.19;5085715;28;20024;-68
2023/05/20 02:16:46;;;;;;;0.40;0.40;;;;;;;9.23;64.41;102108.09;5086081;28;20049;-69
2023/05/20 02:19:11;;;;;;;0.40;0.40;;;;;;;9.11;64.42;102088.81;5086015;28;20490;-69
2023/05/20 02:21:40;;;;;;;0.40;0.40;;;;;;;9.15;64.53;102102.72;5085893;28;20048;-69
2023/05/20 02:24:06;;;;;;;0.40;0.40;;;;;;;9.14;64.46;102103.56;5085631;28;20031;-66
2023/05/20 02:26:33;;;;;;;0.40;0.40;;;;;;;9.12;64.55;102095.75;5086308;28;20080;-69
2023/05/20 02:28:58;;;;;;;0.40;0.40;;;;;;;9.14;64.66;102101.84;5085806;28;20147;-69
2023/05/20 02:31:23;;;;;;;0.30;0.30;;;;;;;9.17;64.75;102103.63;5085870;28;20024;-69
2023/05/20 02:33:49;;;;;;;0.40;0.40;;;;;;;9.18;64.85;102102.81;5085563;28;20024;-69
2023/05/20 02:36:16;;;;;;;0.40;0.40;;;;;;;9.23;64.71;102105.50;5085696;28;20016;-68
2023/05/20 02:38:41;;;;;;;1.98;1.85;;;;;;;9.23;64.60;102105.50;5084830;28;20021;-70
2023/05/20 02:41:07;;;;;;;0.40;0.40;;;;;;;9.22;64.54;102102.03;5085552;28;20074;-69
2023/05/20 02:43:33;;;;;;;0.40;0.40;;;;;;;9.27;64.40;102108.22;5085630;28;20050;-68
2023/05/20 02:45:58;;;;;;;0.40;0.40;;;;;;;9.21;64.41;102102.00;5085802;28;20020;-70
2023/05/20 02:48:24;;;;;;;0.30;0.30;;;;;;;9.27;64.27;102110.81;5085286;28;20025;-69
2023/05/20 02:50:50;;;;;;;0.40;0.40;;;;;;;9.28;64.27;102117.72;5085557;28;20056;-67
2023/05/20 02:53:15;;;;;;;2.15;2.05;;;;;;;9.19;64.19;102094.19;5085414;28;20032;-69
2023/05/20 02:55:41;;;;;;;0.40;0.40;;;;;;;9.30;64.46;102103.09;5084851;28;20020;-69
2023/05/20 02:58:06;;;;;;;0.40;0.40;;;;;;;9.30;64.57;102104.81;5085625;28;20036;-69
2023/05/20 03:00:34;;;;;;;0.30;0.30;;;;;;;9.27;64.68;102112.50;5085226;28;20020;-69
2023/05/20 03:02:59;;;;;;;0.40;0.40;;;;;;;9.15;65.01;102095.81;5084053;28;20029;-67
2023/05/20 03:05:26;;;;;;;0.38;0.38;;;;;;;9.12;65.08;102103.50;5085580;28;20024;-68
2023/05/20 03:07:51;;;;;;;0.40;0.40;;;;;;;9.13;65.23;102099.22;5085448;28;20036;-69
2023/05/20 03:10:17;;;;;;;0.40;0.40;;;;;;;9.17;65.51;102095.84;5085083;28;20074;-69
2023/05/20 03:12:42;;;;;;;0.30;0.30;;;;;;;9.35;65.89;102112.69;5085091;28;20043;-68
2023/05/20 03:15:08;;;;;;;0.40;0.40;;;;;;;9.52;65.95;102106.19;5085222;28;20041;-68
2023/05/20 03:17:33;;;;;;;0.60;0.60;;;;;;;9.82;66.06;102108.59;5084929;28;20048;-70
2023/05/20 03:20:00;;;;;;;0.30;0.30;;;;;;;10.11;66.09;102111.81;5085248;28;20030;-69
2023/05/20 03:22:26;;;;;;;0.40;0.40;;;;;;;10.32;66.08;102118.28;5085148;28;20072;-69
2023/05/20 03:24:51;;;;;;;0.30;0.30;;;;;;;10.58;66.05;102122.28;5084969;28;20028;-68
2023/05/20 03:27:17;;;;;;;0.30;0.30;;;;;;;10.84;66.28;102122.78;5085053;28;20031;-69
2023/05/20 03:29:43;;;;;;;0.30;0.30;;;;;;;11.18;66.29;102117.31;5084883;28;20084;-68
2023/05/20 03:32:08;;;;;;;0.30;0.30;;;;;;;11.50;66.30;102103.06;5085127;28;20023;-69
2023/05/20 03:34:34;;;;;;;0.30;0.30;;;;;;;11.93;66.38;102112.31;5084961;28;20103;-69
2023/05/20 03:36:59;;;;;;;0.30;0.30;;;;;;;12.34;65.91;102112.00;5083525;28;20044;-69
2023/05/20 03:39:25;;;;;;;0.30;0.30;;;;;;;12.68;65.64;102108.00;5084639;28;20021;-67
2023/05/20 03:41:50;;;;;;;0.43;0.43;;;;;;;12.98;65.58;102104.84;5084609;28;20029;-69
2023/05/20 03:44:16;;;;;;;0.47;0.47;;;;;;;13.54;65.93;102099.19;5084837;28;20023;-69
2023/05/20 03:46:41;;;;;;;0.30;0.30;;;;;;;14.03;65.25;102102.03;5084872;28;20116;-69
2023/05/20 03:49:07;;;;;;;0.30;0.30;;;;;;;14.34;63.99;102108.28;5084562;28;20052;-68
2023/05/20 03:51:32;;;;;;;0.32;0.32;;;;;;;14.37;63.50;102108.28;5088713;28;20016;-69
2023/05/20 03:53:57;;;;;;;0.30;0.30;;;;;;;14.28;62.95;102100.38;5088924;28;20024;-67
2023/05/20 03:56:23;;;;;;;0.68;0.68;;;;;;;14.29;62.81;102096.94;5088724;28;20025;-68
2023/05/20 03:58:48;;;;;;;0.43;0.43;;;;;;;14.48;62.33;102104.81;5088667;28;20032;-67
2023/05/20 04:01:14;;;;;;;0.30;0.30;;;;;;;14.60;61.68;102110.06;5088724;28;20085;-68
2023/05/20 04:03:41;;;;;;;0.30;0.30;;;;;;;14.74;61.64;102111.84;5088687;28;20476;-69
2023/05/20 04:06:06;;;;;;;0.40;0.40;;;;;;;14.79;61.41;102110.13;5088423;28;20024;-68
2023/05/20 04:08:35;;;;;;;0.40;0.40;;;;;;;14.92;61.52;102104.94;5088491;28;20028;-68
2023/05/20 04:11:01;;;;;;;0.30;0.30;;;;;;;15.19;61.39;102097.94;5088298;28;20029;-68
2023/05/20 04:13:26;;;;;;;0.47;0.47;;;;;;;15.47;61.53;102090.94;5088533;28;20016;-68
2023/05/20 04:15:52;;;;;;;0.30;0.30;;;;;;;15.86;61.33;102092.56;5088323;28;20361;-67
2023/05/20 04:18:17;;;;;;;0.98;0.88;;;;;;;16.19;60.79;102095.09;5088303;28;20506;-69
2023/05/20 04:20:43;;;;;;;0.20;0.20;;;;;;;16.44;60.27;102097.56;5088342;28;20031;-68
2023/05/20 04:23:09;;;;;;;0.20;0.20;;;;;;;16.96;60.93;102096.31;5088276;28;20020;-68
2023/05/20 04:25:35;;;;;;;0.20;0.20;;;;;;;17.12;58.27;102091.00;5088018;28;20035;-68
2023/05/20 04:28:00;;;;;;;0.25;0.25;;;;;;;17.01;57.35;102095.44;5088323;28;20076;-68
2023/05/20 04:30:26;;;;;;;0.30;0.30;;;;;;;16.83;56.25;102087.69;5088148;28;20024;-67
2023/05/20 04:32:52;;;;;;;0.30;0.30;;;;;;;16.69;56.70;102097.41;5086525;28;20082;-67
2023/05/20 04:35:18;;;;;;;0.20;0.20;;;;;;;16.65;56.15;102100.94;5087797;28;20028;-68
2023/05/20 04:37:46;;;;;;;0.30;0.30;;;;;;;16.70;57.61;102107.00;5087955;28;20021;-68
2023/05/20 04:40:12;;;;;;;0.30;0.30;;;;;;;17.12;56.45;102093.63;5087877;28;20089;-67
2023/05/20 04:42:38;;;;;;;0.95;0.95;;;;;;;17.28;55.98;102103.97;5087870;28;20036;-68
2023/05/20 04:45:04;;;;;;;0.20;0.20;;;;;;;17.57;55.46;102103.66;5087785;28;20447;-64
2023/05/20 04:47:31;;;;;;;0.38;0.38;;;;;;;17.82;55.40;102108.66;5086220;28;20024;-63
2023/05/20 04:49:56;;;;;;;0.52;0.52;;;;;;;18.03;54.91;102114.53;5087775;28;20036;-63
2023/05/20 04:52:24;;;;;;;1.00;1.00;;;;;;;18.49;54.92;102112.22;5087352;28;20021;-63
2023/05/20 04:54:50;;;;;;;0.20;0.20;;;;;;;19.00;54.48;102105.28;5087426;28;20051;-64
2023/05/20 04:57:19;;;;;;;0.35;0.35;;;;;;;19.25;53.07;102110.16;5086269;28;20013;-64
2023/05/20 04:59:46;;;;;;;1.05;0.95;;;;;;;19.38;52.23;102107.28;5087734;28;20040;-64
2023/05/20 05:02:11;;;;;;;0.20;0.20;;;;;;;19.60;51.80;102099.84;5086699;28;20502;-64
2023/05/20 05:04:37;;;;;;;0.20;0.20;;;;;;;19.44;51.36;102101.94;5087395;28;20025;-64
2023/05/20 05:07:04;;;;;;;0.20;0.20;;;;;;;19.50;51.35;102104.44;5087311;28;20025;-64
2023/05/20 05:09:29;;;;;;;0.50;0.50;;;;;;;19.52;50.66;102099.16;5086953;28;20461;-64
2023/05/20 05:11:54;;;;;;;0.47;0.47;;;;;;;19.77;51.00;102104.81;5087439;28;20020;-63
2023/05/20 05:14:21;;;;;;;0.20;0.20;;;;;;;20.00;48.87;102099.97;5087480;28;20056;-64
2023/05/20 05:16:46;;;;;;;0.20;0.20;;;;;;;19.90;48.19;102100.16;5086936;28;20055;-63
2023/05/20 05:19:12;;;;;;;0.30;0.30;;;;;;;19.66;47.11;102099.75;5087076;28;20044;-64
2023/05/20 05:21:38;;;;;;;0.30;0.30;;;;;;;19.15;47.12;102100.69;5087431;28;20030;-63
2023/05/20 05:24:03;;;;;;;0.20;0.20;;;;;;;19.01;47.92;102107.00;5086977;28;20031;-63
2023/05/20 05:26:28;;;;;;;0.20;0.20;;;;;;;19.37;49.21;102102.94;5087097;28;20074;-64
2023/05/20 05:28:54;;;;;;;0.20;0.20;;;;;;;19.98;48.54;102105.25;5087009;28;20126;-62
2023/05/20 05:31:19;;;;;;;0.20;0.20;;;;;;;20.58;48.68;102103.97;5085789;28;20020;-64
2023/05/20 05:33:45;;;;;;;0.20;0.20;;;;;;;21.18;46.92;102101.66;5085760;28;20464;-63
2023/05/20 05:36:10;;;;;;;1.00;0.95;;;;;;;21.18;45.12;102109.59;5087138;28;20017;-63
2023/05/20 05:38:36;;;;;;;0.20;0.20;;;;;;;21.36;45.98;102102.09;5086857;28;20017;-63
2023/05/20 05:41:01;;;;;;;0.20;0.20;;;;;;;21.61;45.47;102111.97;5086638;28;20148;-63
2023/05/20 05:43:27;;;;;;;0.40;0.40;;;;;;;21.78;43.68;102104.47;5086793;28;20534;-64
2023/05/20 05:45:52;;;;;;;1.88;1.77;;;;;;;22.14;43.57;102107.84;5086842;28;20024;-63
2023/05/20 05:48:17;;;;;;;0.30;0.30;;;;;;;22.19;43.35;102105.06;5086507;28;20285;-64
2023/05/20 05:50:44;;;;;;;0.20;0.20;;;;;;;22.18;43.53;102096.25;5086607;28;20028;-64
2023/05/20 05:53:10;;;;;;;0.20;0.20;;;;;;;22.12;42.93;102101.72;5086318;28;20077;-63
2023/05/20 05:55:36;;;;;;;0.20;0.20;;;;;;;22.25;43.71;102087.19;5085067;28;20024;-63
2023/05/20 05:58:01;;;;;;;0.75;0.45;;;;;;;22.53;42.73;102103.97;5086807;28;20046;-64
2023/05/20 06:00:26;;;;;;;0.20;0.20;;;;;;;22.94;43.10;102100.06;5086217;28;20048;-63
2023/05/20 06:02:52;;;;;;;0.10;0.10;;;;;;;23.23;42.25;102096.41;5086419;28;20021;-64
2023/05/20 06:05:17;;;;;;;0.20;0.20;;;;;;;23.55;41.94;102095.34;5086378;28;20069;-63
2023/05/20 06:07:43;;;;;;;0.75;0.60;;;;;;;23.89;40.30;102096.72;5086303;28;20021;-64
2023/05/20 06:10:08;;;;;;;0.20;0.20;;;;;;;23.47;39.13;102106.19;5086144;28;20021;-63
2023/05/20 06:12:34;;;;;;;0.15;0.15;;;;;;;23.52;40.09;102093.66;5086318;28;20080;-63
2023/05/20 06:14:59;;;;;;;0.47;0.47;;;;;;;23.74;40.41;102099.03;5085951;28;20032;-63
2023/05/20 06:17:25;;;;;;;0.17;0.17;;;;;;;23.66;39.03;102087.81;5086145;28;20037;-64
2023/05/20 06:19:50;;;;;;;0.20;0.20;;;;;;;23.51;38.41;102095.41;5086059;28;20103;-63
2023/05/20 06:22:16;;;;;;;0.20;0.20;;;;;;;23.32;38.95;102102.28;5086069;28;20032;-63
2023/05/20 06:24:41;;;;;;;0.20;0.20;;;;;;;23.14;38.82;102104.66;5085726;28;20114;-63
2023/05/20 06:27:06;;;;;;;0.68;0.68;;;;;;;23.21;39.66;102100.88;5085999;28;20016;-63
2023/05/20 06:29:32;;;;;;;0.32;0.30;;;;;;;23.23;38.49;102106.13;5085830;28;20036;-64
2023/05/20 06:31:58;;;;;;;4.18;1.40;;;;;;;22.94;37.79;102106.19;5086071;28;20022;-63
2023/05/20 06:34:24;;;;;;;0.20;0.20;;;;;;;22.77;37.97;102105.00;5085754;28;20025;-63
2023/05/20 06:36:49;;;;;;;0.10;0.10;;;;;;;22.59;38.34;102098.53;5085908;28;20024;-63
2023/05/20 06:39:15;;;;;;;0.25;0.25;;;;;;;22.50;38.51;102094.38;5085763;28;20028;-63
2023/05/20 06:41:40;;;;;;;0.20;0.20;;;;;;;22.63;39.08;102094.00;5085563;28;20060;-63
2023/05/20 06:44:06;;;;;;;0.20;0.20;;;;;;;22.93;38.37;102090.38;5085708;28;20074;-63
2023/05/20 06:46:33;;;;;;;1.17;1.13;;;;;;;22.97;38.44;102095.50;5085787;28;20380;-63
2023/05/20 06:48:58;;;;;;;0.20;0.20;;;;;;;23.05;38.06;102089.09;5085263;28;20055;-63
2023/05/20 06:51:24;;;;;;;0.57;0.57;;;;;;;22.95;38.48;102088.53;5085560;28;20020;-63
2023/05/20 06:53:49;;;;;;;6.45;1.30;;;;;;;22.82;38.00;102091.63;5083975;28;20028;-63
2023/05/20 06:56:15;;;;;;;0.17;0.17;;;;;;;22.65;38.28;102086.88;5085238;28;20027;-63
2023/05/20 06:58:40;;;;;;;0.20;0.20;;;;;;;22.67;38.84;102095.63;5085597;28;20020;-63
2023/05/20 07:01:06;;;;;;;0.20;0.20;;;;;;;22.76;38.50;102091.81;5085209;28;20088;-63
2023/05/20 07:03:31;;;;;;;0.60;0.60;;;;;;;22.97;38.47;102087.56;5085242;28;20031;-63
2023/05/20 07:05:58;;;;;;;0.50;0.45;;;;;;;23.26;38.52;102090.97;5085301;28;20026;-63
2023/05/20 07:08:23;;;;;;;1.15;0.98;;;;;;;23.55;37.52;102082.09;5085150;28;20076;-63
2023/05/20 07:10:49;;;;;;;0.10;0.10;;;;;;;23.40;36.75;102073.78;5085136;28;20089;-63
2023/05/20 07:13:15;;;;;;;0.30;0.30;;;;;;;23.41;38.02;102075.50;5085396;28;20031;-64
2023/05/20 07:15:40;;;;;;;0.20;0.20;;;;;;;23.60;37.44;102067.72;5085309;28;20025;-63
2023/05/20 07:18:05;;;;;;;0.20;0.20;;;;;;;24.02;37.62;102078.53;5085130;28;20049;-63
2023/05/20 07:20:31;;;;;;;0.30;0.30;;;;;;;24.57;37.32;102079.06;5085238;28;20021;-64
2023/05/20 07:22:56;;;;;;;0.20;0.20;;;;;;;25.07;36.01;102075.22;5085052;28;20028;-62
2023/05/20 07:25:21;;;;;;;0.30;0.30;;;;;;;25.55;35.09;102071.34;5084659;28;20069;-64
2023/05/20 07:27:47;;;;;;;0.25;0.25;;;;;;;25.74;35.07;102079.38;5085141;28;20027;-66
2023/05/20 07:30:12;;;;;;;0.20;0.20;;;;;;;26.04;34.31;102075.38;5085212;28;20055;-65
2023/05/20 07:32:38;;;;;;;0.10;0.10;;;;;;;26.19;35.14;102071.06;5085108;28;20035;-65
2023/05/20 07:35:04;;;;;;;0.73;0.73;;;;;;;25.86;33.11;102073.47;5085107;28;20024;-66
2023/05/20 07:37:30;;;;;;;0.38;0.38;;;;;;;25.00;31.92;102071.97;5084921;28;20024;-65
2023/05/20 07:39:55;;;;;;;0.20;0.20;;;;;;;24.07;32.95;102057.13;5084788;28;20029;-69
2023/05/20 07:42:20;;;;;;;0.32;0.32;;;;;;;23.92;34.13;102079.81;5085136;28;20027;-65
2023/05/20 07:44:46;;;;;;;0.10;0.10;;;;;;;23.87;34.45;102069.38;5084738;28;20028;-63
2023/05/20 07:47:12;;;;;;;0.40;0.40;;;;;;;23.79;33.38;102053.75;5084889;28;20031;-65
2023/05/20 07:49:38;;;;;;;0.10;0.10;;;;;;;23.69;33.07;102063.84;5084875;28;20027;-64
2023/05/20 07:52:03;;;;;;;0.35;0.35;;;;;;;23.39;33.72;102061.41;5083576;28;20024;-62
2023/05/20 07:54:29;;;;;;;0.20;0.20;;;;;;;23.02;33.25;102064.44;5084681;28;20024;-67
2023/05/20 07:56:54;;;;;;;0.20;0.20;;;;;;;22.81;33.79;102062.53;5084963;28;20035;-60
2023/05/20 07:59:20;;;;;;;0.25;0.25;;;;;;;22.82;33.50;102056.31;5084779;28;20945;-66
2023/05/20 08:01:45;;;;;;;0.20;0.20;;;;;;;22.54;33.24;102073.94;5084701;28;20032;-65
2023/05/20 08:04:11;;;;;;;0.20;0.20;;;;;;;22.32;32.87;102072.00;5083246;28;20029;-65
2023/05/20 08:06:37;;;;;;;0.95;0.95;;;;;;;22.12;32.85;102064.69;5084694;28;20024;-62
2023/05/20 08:09:03;;;;;;;0.20;0.20;;;;;;;22.20;33.08;102065.34;5084442;28;20357;-62
2023/05/20 08:11:28;;;;;;;0.20;0.20;;;;;;;22.23;33.19;102062.59;5084204;28;20021;-62
2023/05/20 08:13:54;;;;;;;0.20;0.20;;;;;;;22.17;33.06;102060.97;5084256;28;20035;-63
2023/05/20 08:16:22;;;;;;;0.22;0.22;;;;;;;22.14;33.57;102052.31;5084223;28;20280;-62
2023/05/20 08:18:48;;;;;;;0.10;0.10;;;;;;;22.53;32.93;102059.88;5084513;28;20088;-62
2023/05/20 08:21:14;;;;;;;0.20;0.20;;;;;;;22.74;32.89;102054.81;5084745;28;20031;-62
2023/05/20 08:23:40;;;;;;;0.20;0.20;;;;;;;22.80;32.41;102052.84;5084638;28;20028;-63
2023/05/20 08:26:05;;;;;;;0.17;0.17;;;;;;;22.86;32.35;102047.38;5084429;28;20016;-63
2023/05/20 08:28:31;;;;;;;0.32;0.32;;;;;;;22.98;32.01;102049.59;5084708;28;20047;-63
2023/05/20 08:30:59;;;;;;;0.20;0.20;;;;;;;23.08;32.25;102046.63;5084260;28;20029;-62
2023/05/20 08:33:25;;;;;;;0.30;0.30;;;;;;;23.08;31.81;102057.22;5084642;28;20028;-62
2023/05/20 08:35:50;;;;;;;0.20;0.20;;;;;;;23.00;31.59;102047.72;5084693;28;20081;-62
2023/05/20 08:38:16;;;;;;;0.20;0.20;;;;;;;23.06;31.04;102048.44;5087505;28;20094;-62
2023/05/20 08:40:41;;;;;;;0.45;0.45;;;;;;;23.43;31.40;102048.94;5087805;28;20123;-63
2023/05/20 08:43:07;;;;;;;0.10;0.10;;;;;;;23.81;30.55;102043.97;5088014;28;20515;-62
2023/05/20 08:45:33;;;;;;;0.47;0.47;;;;;;;23.94;30.73;102054.97;5087962;28;20027;-63
2023/05/20 08:47:59;;;;;;;0.20;0.20;;;;;;;24.26;29.99;102047.56;5087680;28;20048;-64
2023/05/20 08:50:25;;;;;;;0.20;0.20;;;;;;;24.51;29.60;102043.88;5088058;28;20096;-63
2023/05/20 08:52:51;;;;;;;1.55;0.90;;;;;;;24.70;29.49;102043.09;5087882;28;20032;-63
2023/05/20 08:55:21;;;;;;;0.20;0.20;;;;;;;24.58;29.48;102035.66;5087881;28;20039;-61
2023/05/20 08:57:53;;;;;;;0.20;0.20;;;;;;;24.71;28.91;102036.00;5088182;28;20036;-63
2023/05/20 09:00:20;;;;;;;0.17;0.17;;;;;;;24.88;29.65;102035.28;5088090;28;20025;-63
2023/05/20 09:02:46;;;;;;;0.10;0.10;;;;;;;25.29;29.32;102029.06;5087595;28;20088;-63
2023/05/20 09:05:11;;;;;;;0.22;0.22;;;;;;;25.93;29.42;102027.97;5087551;28;20035;-63
2023/05/20 09:07:37;;;;;;;0.10;0.10;;;;;;;26.53;29.07;102033.97;5087646;28;20484;-62
2023/05/20 09:10:04;;;;;;;0.10;0.10;;;;;;;27.22;28.58;102026.00;5087230;28;20048;-63
2023/05/20 09:12:29;;;;;;;0.10;0.10;;;;;;;28.18;28.04;102030.50;5087415;28;20028;-63
2023/05/20 09:14:54;;;;;;;0.10;0.10;;;;;;;28.38;27.16;102023.19;5087516;28;20021;-63
2023/05/20 09:17:23;;;;;;;0.30;0.30;;;;;;;28.26;26.78;102018.53;5087342;28;20044;-63
2023/05/20 09:19:50;;;;;;;0.10;0.10;;;;;;;28.44;27.71;102021.94;5087366;28;20076;-63
2023/05/20 09:22:24;;;;;;;0.10;0.10;;;;;;;28.38;26.47;102020.50;5087508;28;20021;-63
2023/05/20 09:24:51;;;;;;;0.57;0.57;;;;;;;28.51;27.13;102025.13;5086977;28;20025;-64
2023/05/20 09:27:17;;;;;;;0.10;0.10;;;;;;;29.10;27.21;102012.72;5087397;28;20020;-63
2023/05/20 09:29:42;;;;;;;0.10;0.10;;;;;;;29.93;24.62;102011.06;5087121;28;20052;-63
2023/05/20 09:32:12;;;;;;;0.10;0.10;;;;;;;29.63;25.25;102017.47;5087251;28;20028;-63
2023/05/20 09:34:38;;;;;;;0.10;0.10;;;;;;;29.56;25.22;102016.97;5087156;28;20503;-63
2023/05/20 09:37:06;;;;;;;0.10;0.10;;;;;;;29.55;25.53;102008.06;5087302;28;20028;-63
2023/05/20 09:39:58;;;;;;;0.10;0.10;;;;;;;29.72;25.02;102006.16;5086882;28;20048;-63
2023/05/20 09:42:38;;;;;;;0.10;0.10;;;;;;;29.42;24.22;102017.84;5087092;28;20031;-62
2023/05/20 09:45:08;;;;;;;0.10;0.10;;;;;;;29.16;24.41;102004.31;5086806;28;20024;-63
2023/05/20 09:47:36;;;;;;;0.10;0.10;;;;;;;28.91;24.18;102000.47;5086545;28;20093;-62
2023/05/20 09:50:02;;;;;;;0.30;0.30;;;;;;;28.89;25.36;102003.25;5086660;28;20024;-63
2023/05/20 09:52:28;;;;;;;0.90;0.90;;;;;;;29.48;24.77;102004.09;5086598;28;20028;-63
2023/05/20 09:54:55;;;;;;;0.20;0.20;;;;;;;29.93;24.18;101997.69;5086495;28;20017;-63
2023/05/20 09:57:20;;;;;;;0.60;0.60;;;;;;;29.50;24.73;102006.66;5086707;28;20442;-62
2023/05/20 09:59:46;;;;;;;0.10;0.10;;;;;;;28.29;25.69;102005.84;5086540;28;20080;-63
2023/05/20 10:02:12;;;;;;;0.10;0.10;;;;;;;26.88;27.50;102002.00;5086588;28;20028;-63
2023/05/20 10:04:44;;;;;;;0.20;0.20;;;;;;;25.42;29.51;102010.78;5086414;28;20494;-63
2023/05/20 10:07:25;;;;;;;0.10;0.10;;;;;;;24.81;31.06;102004.63;5086745;28;20020;-63
2023/05/20 10:10:16;;;;;;;0.10;0.10;;;;;;;25.33;30.92;102005.88;5086356;28;20027;-63
2023/05/20 10:12:49;;;;;;;0.10;0.10;;;;;;;25.99;30.57;102009.06;5086461;28;20046;-63
2023/05/20 10:15:43;;;;;;;0.20;0.20;;;;;;;25.93;30.58;102010.22;5086385;28;20021;-63
2023/05/20 10:18:43;;;;;;;0.10;0.10;;;;;;;26.86;29.52;102003.88;5086033;28;20040;-62
2023/05/20 10:21:16;;;;;;;0.20;0.20;;;;;;;27.12;28.53;102006.13;5086174;28;20048;-64
2023/05/20 10:23:41;;;;;;;0.45;0.45;;;;;;;26.78;28.95;101996.28;5086051;28;20035;-62
2023/05/20 10:26:07;;;;;;;0.10;0.10;;;;;;;26.86;29.59;101998.53;5086032;28;20020;-63
2023/05/20 10:28:35;;;;;;;0.10;0.10;;;;;;;26.97;29.17;101990.84;5086078;28;20036;-64
2023/05/20 10:31:01;;;;;;;0.20;0.20;;;;;;;27.21;29.44;101993.16;5085935;28;20021;-64
2023/05/20 10:33:27;;;;;;;0.30;0.30;;;;;;;27.61;29.50;101997.22;5084560;28;20024;-64
2023/05/20 10:35:54;;;;;;;0.10;0.10;;;;;;;27.96;28.82;101994.41;5085942;28;20484;-63
2023/05/20 10:38:20;;;;;;;0.15;0.15;;;;;;;27.98;28.61;101993.44;5085722;28;20020;-63
2023/05/20 10:40:46;;;;;;;0.10;0.10;;;;;;;28.16;28.42;101995.06;5085518;28;20434;-65
2023/05/20 10:43:14;;;;;;;0.10;0.10;;;;;;;28.14;28.40;101986.28;5085811;28;20039;-63
2023/05/20 10:45:52;;;;;;;0.25;0.25;;;;;;;28.39;27.99;101992.84;5085915;28;20107;-64
2023/05/20 10:48:31;;;;;;;0.57;0.57;;;;;;;28.58;28.22;101986.41;5085462;28;20048;-63
2023/05/20 10:51:03;;;;;;;0.20;0.20;;;;;;;28.61;27.51;101994.22;5085889;28;20087;-63
2023/05/20 10:53:38;;;;;;;0.52;0.52;;;;;;;28.24;27.98;101985.72;5085583;28;20048;-63
2023/05/20 10:56:03;;;;;;;0.63;0.63;;;;;;;27.56;28.91;101981.47;5085421;28;20419;-64
2023/05/20 10:58:39;;;;;;;0.10;0.10;;;;;;;26.34;30.38;101979.00;5085475;28;20477;-64
2023/05/20 11:01:04;;;;;;;0.20;0.20;;;;;;;25.40;31.81;101986.06;5084908;28;20032;-63
2023/05/20 11:03:32;;;;;;;0.30;0.30;;;;;;;24.46;33.14;101979.50;5085418;28;20032;-63
2023/05/20 11:05:57;;;;;;;0.57;0.57;;;;;;;23.82;33.83;101983.88;5085459;28;20035;-63
2023/05/20 11:08:29;;;;;;;0.30;0.30;;;;;;;23.20;34.71;101985.25;5085327;28;20088;-63
2023/05/20 11:10:56;;;;;;;0.10;0.10;;;;;;;22.71;36.11;101985.22;5085323;28;20028;-63
2023/05/20 11:13:21;;;;;;;0.30;0.30;;;;;;;22.27;36.93;101979.56;5085105;28;20027;-63
2023/05/20 11:15:48;;;;;;;0.10;0.10;;;;;;;21.84;37.60;101971.22;5085239;28;20088;-63
2023/05/20 11:18:14;;;;;;;0.20;0.20;;;;;;;21.37;38.32;101979.66;5085127;28;20112;-63
2023/05/20 11:20:41;;;;;;;0.20;0.20;;;;;;;20.86;38.63;101963.44;5085220;28;20052;-63
2023/05/20 11:23:12;;;;;;;0.20;0.20;;;;;;;20.71;39.59;101970.84;5085062;28;20050;-63